createdAt,value
2023-05-22T00:01:20.463Z,10.07
2023-05-22T00:04:07.681Z,9.35
2023-05-22T00:06:55.680Z,8.93
2023-05-22T00:09:42.825Z,9.80
2023-05-22T00:12:32.246Z,10.07
2023-05-22T00:15:19.437Z,10.32
2023-05-22T00:18:08.791Z,10.60
2023-05-22T00:20:56.008Z,10.88
2023-05-22T00:23:44.139Z,10.95
2023-05-22T00:26:31.301Z,12.10
2023-05-22T00:29:20.748Z,10.68
2023-05-22T00:32:08.659Z,10.48
2023-05-22T00:34:56.376Z,10.10
2023-05-22T00:37:45.958Z,9.40
2023-05-22T00:40:34.242Z,10.30
2023-05-22T00:43:22.000Z,9.77
2023-05-22T00:46:13.007Z,10.00
2023-05-22T00:49:00.281Z,10.52
2023-05-22T00:51:48.716Z,10.30
2023-05-22T00:54:38.398Z,8.82
2023-05-22T00:57:26.238Z,9.50
2023-05-22T01:00:17.317Z,9.73
2023-05-22T01:03:10.146Z,9.43
2023-05-22T01:05:58.318Z,9.68
2023-05-22T01:08:46.609Z,9.32
2023-05-22T01:11:42.165Z,10.52
2023-05-22T01:14:36.568Z,10.67
2023-05-22T01:17:30.796Z,9.47
2023-05-22T01:20:25.279Z,9.60
2023-05-22T01:23:50.128Z,11.10
2023-05-22T01:27:06.021Z,10.67
2023-05-22T01:30:16.698Z,10.63
2023-05-22T01:33:08.746Z,11.10
2023-05-22T01:35:59.706Z,10.70
2023-05-22T01:38:48.445Z,10.53
2023-05-22T01:41:36.164Z,10.33
2023-05-22T01:44:25.621Z,10.10
2023-05-22T01:47:12.932Z,8.67
2023-05-22T01:50:02.621Z,9.23
2023-05-22T01:52:56.532Z,10.03
2023-05-22T01:55:50.911Z,10.53
2023-05-22T01:58:45.022Z,8.97
2023-05-22T02:01:35.507Z,9.63
2023-05-22T02:04:24.533Z,9.17
2023-05-22T02:07:14.900Z,9.40
2023-05-22T02:10:05.468Z,8.97
2023-05-22T02:12:53.186Z,9.13
2023-05-22T02:15:41.681Z,8.80
2023-05-22T02:18:29.569Z,8.40
2023-05-22T02:21:18.217Z,9.03
2023-05-22T02:24:07.410Z,8.50
2023-05-22T02:26:54.544Z,8.53
2023-05-22T02:29:42.634Z,8.03
2023-05-22T02:32:31.600Z,7.93
2023-05-22T02:35:19.676Z,8.10
2023-05-22T02:38:06.993Z,8.47
2023-05-22T02:40:56.453Z,7.80
2023-05-22T02:43:43.599Z,7.20
2023-05-22T02:46:33.173Z,8.07
2023-05-22T02:49:20.640Z,8.33
2023-05-22T02:52:09.081Z,8.10
2023-05-22T02:54:56.742Z,8.23
2023-05-22T02:57:45.681Z,7.53
2023-05-22T03:00:33.811Z,8.17
2023-05-22T03:03:21.153Z,8.37
2023-05-22T03:06:11.044Z,7.67
2023-05-22T03:08:58.717Z,7.53
2023-05-22T03:11:45.855Z,7.97
2023-05-22T03:14:35.364Z,8.07
2023-05-22T03:17:22.848Z,7.27
2023-05-22T03:20:17.383Z,7.57
2023-05-22T03:23:06.740Z,7.60
2023-05-22T03:25:55.557Z,8.17
2023-05-22T03:28:47.941Z,7.97
2023-05-22T03:31:36.445Z,8.73
2023-05-22T03:34:32.668Z,8.20
2023-05-22T03:37:20.899Z,8.00
2023-05-22T03:40:10.644Z,8.03
2023-05-22T03:42:57.802Z,8.63
2023-05-22T03:45:46.181Z,8.13
2023-05-22T03:48:35.067Z,8.10
2023-05-22T03:51:23.206Z,8.03
2023-05-22T03:54:10.359Z,7.43
2023-05-22T03:56:58.443Z,8.50
2023-05-22T03:59:46.083Z,8.33
2023-05-22T04:02:34.249Z,7.87
2023-05-22T04:05:22.955Z,8.37
2023-05-22T04:08:11.216Z,7.77
2023-05-22T04:10:58.318Z,8.67
2023-05-22T04:13:46.421Z,8.17
2023-05-22T04:16:34.410Z,8.70
2023-05-22T04:19:21.941Z,9.00
2023-05-22T04:22:11.362Z,7.80
2023-05-22T04:24:59.286Z,8.63
2023-05-22T04:27:48.496Z,8.80
2023-05-22T04:30:38.205Z,8.53
2023-05-22T04:33:25.604Z,8.53
2023-05-22T04:36:13.700Z,7.30
2023-05-22T04:39:04.954Z,7.83
2023-05-22T04:41:53.250Z,8.33
2023-05-22T04:44:41.225Z,8.23
2023-05-22T04:47:31.851Z,8.23
2023-05-22T04:50:25.386Z,7.73
2023-05-22T04:53:13.116Z,7.57
2023-05-22T04:56:02.578Z,8.10
2023-05-22T04:58:50.532Z,7.95
2023-05-22T05:01:38.711Z,8.60
2023-05-22T05:04:26.287Z,8.23
2023-05-22T05:07:18.143Z,7.95
2023-05-22T05:10:07.122Z,8.30
2023-05-22T05:12:56.387Z,8.35
2023-05-22T05:15:43.615Z,7.68
2023-05-22T05:18:31.384Z,7.75
2023-05-22T05:21:20.204Z,7.80
2023-05-22T05:24:08.167Z,7.32
2023-05-22T05:26:55.647Z,6.60
2023-05-22T05:29:45.130Z,7.28
2023-05-22T05:32:40.440Z,6.43
2023-05-22T05:36:07.013Z,6.55
2023-05-22T05:38:57.971Z,5.95
2023-05-22T05:41:46.319Z,6.78
2023-05-22T05:44:33.738Z,6.15
2023-05-22T05:47:25.069Z,5.80
2023-05-22T05:50:15.504Z,6.28
2023-05-22T05:53:03.710Z,6.70
2023-05-22T05:55:51.721Z,6.18
2023-05-22T05:58:39.878Z,6.72
2023-05-22T06:01:50.632Z,5.47
2023-05-22T06:04:48.801Z,5.57
2023-05-22T06:07:39.622Z,5.93
2023-05-22T06:10:28.306Z,5.88
2023-05-22T06:13:31.802Z,5.60
2023-05-22T06:16:19.336Z,5.57
2023-05-22T06:19:07.265Z,5.57
2023-05-22T06:21:55.998Z,5.05
2023-05-22T06:24:43.691Z,5.57
2023-05-22T06:27:37.745Z,4.90
2023-05-22T06:30:38.860Z,5.40
2023-05-22T06:33:34.848Z,5.20
2023-05-22T06:36:22.254Z,5.20
2023-05-22T06:39:11.039Z,5.53
2023-05-22T06:42:21.537Z,5.75
2023-05-22T06:45:41.584Z,5.70
2023-05-22T06:48:45.948Z,5.75
2023-05-22T06:51:47.143Z,6.28
2023-05-22T06:54:38.668Z,5.35
2023-05-22T06:57:28.398Z,5.20
2023-05-22T07:03:21.857Z,5.05
2023-05-22T07:06:38.884Z,5.60
2023-05-22T07:09:26.790Z,5.00
2023-05-22T07:12:16.189Z,5.68
2023-05-22T07:15:03.949Z,5.28
2023-05-22T07:17:53.123Z,5.82
2023-05-22T07:20:47.639Z,6.25
2023-05-22T07:23:40.250Z,5.65
2023-05-22T07:26:29.924Z,5.22
2023-05-22T07:29:25.537Z,5.68
2023-05-22T07:32:15.790Z,6.22
2023-05-22T07:35:04.787Z,6.10
2023-05-22T07:37:54.405Z,6.70
2023-05-22T07:40:42.618Z,6.00
2023-05-22T07:43:30.851Z,6.38
2023-05-22T07:46:21.317Z,4.93
2023-05-22T07:49:20.042Z,6.15
2023-05-22T07:52:07.715Z,5.45
2023-05-22T07:54:55.847Z,5.82
2023-05-22T07:57:44.959Z,5.72
2023-05-22T08:00:40.676Z,5.82
2023-05-22T08:03:29.733Z,6.00
2023-05-22T08:06:18.286Z,5.72
2023-05-22T08:09:06.038Z,6.00
2023-05-22T08:11:54.394Z,5.95
2023-05-22T08:14:41.515Z,5.70
2023-05-22T08:17:29.806Z,5.80
2023-05-22T08:20:18.285Z,6.45
2023-05-22T08:23:06.413Z,5.72
2023-05-22T08:25:53.561Z,6.25
2023-05-22T08:28:44.606Z,6.13
2023-05-22T08:31:34.302Z,5.90
2023-05-22T08:34:22.560Z,6.28
2023-05-22T08:37:11.060Z,5.30
2023-05-22T08:39:59.324Z,6.10
2023-05-22T08:42:47.853Z,5.40
2023-05-22T08:45:35.995Z,5.93
2023-05-22T08:48:25.186Z,5.97
2023-05-22T08:51:15.088Z,6.28
2023-05-22T08:54:07.178Z,5.82
2023-05-22T08:56:57.290Z,5.85
2023-05-22T08:59:46.373Z,6.35
2023-05-22T09:02:33.640Z,6.25
2023-05-22T09:05:21.850Z,6.18
2023-05-22T09:08:19.850Z,5.60
2023-05-22T09:11:11.352Z,6.57
2023-05-22T09:14:07.691Z,5.95
2023-05-22T09:16:55.914Z,5.80
2023-05-22T09:19:44.915Z,6.03
2023-05-22T09:22:39.499Z,5.88
2023-05-22T09:25:28.037Z,6.10
2023-05-22T09:28:17.568Z,6.45
2023-05-22T09:31:06.741Z,5.93
2023-05-22T09:33:55.457Z,6.22
2023-05-22T09:36:42.714Z,5.68
2023-05-22T09:39:39.213Z,6.60
2023-05-22T09:42:26.322Z,6.40
2023-05-22T09:45:21.766Z,6.25
2023-05-22T09:48:09.806Z,6.38
2023-05-22T09:51:00.014Z,6.53
2023-05-22T09:53:48.846Z,6.90
2023-05-22T09:56:40.128Z,6.75
2023-05-22T09:59:30.622Z,6.07
2023-05-22T10:02:21.008Z,7.00
2023-05-22T10:05:09.498Z,6.65
2023-05-22T10:08:02.842Z,6.72
2023-05-22T10:10:55.382Z,6.70
2023-05-22T10:13:43.241Z,6.75
2023-05-22T10:16:31.651Z,6.90
2023-05-22T10:19:21.192Z,6.65
2023-05-22T10:22:08.895Z,7.22
2023-05-22T10:24:56.328Z,6.70
2023-05-22T10:27:45.114Z,6.85
2023-05-22T10:30:37.188Z,7.68
2023-05-22T10:33:48.644Z,7.45
2023-05-22T10:36:51.234Z,7.40
2023-05-22T10:39:48.234Z,7.20
2023-05-22T10:42:37.864Z,7.30
2023-05-22T10:45:29.810Z,7.68
2023-05-22T10:48:22.671Z,6.45
2023-05-22T10:51:13.241Z,7.40
2023-05-22T10:54:05.960Z,6.57
2023-05-22T10:57:10.256Z,6.95
2023-05-22T11:00:08.686Z,7.03
2023-05-22T11:03:17.060Z,6.35
2023-05-22T11:06:08.242Z,7.10
2023-05-22T11:08:57.186Z,6.80
2023-05-22T11:11:46.781Z,7.03
2023-05-22T11:14:36.139Z,6.80
2023-05-22T11:17:26.408Z,6.78
2023-05-22T11:20:18.418Z,7.10
2023-05-22T11:23:07.851Z,7.47
2023-05-22T11:25:55.019Z,7.07
2023-05-22T11:28:43.776Z,7.25
2023-05-22T11:31:32.296Z,7.00
2023-05-22T11:34:20.195Z,7.18
2023-05-22T11:37:09.167Z,6.90
2023-05-22T11:39:58.024Z,7.35
2023-05-22T11:42:45.788Z,7.82
2023-05-22T11:45:37.421Z,7.28
2023-05-22T11:48:25.092Z,6.82
2023-05-22T11:51:12.968Z,6.55
2023-05-22T11:54:00.132Z,6.68
2023-05-22T11:56:48.215Z,7.13
2023-05-22T11:59:36.620Z,6.85
2023-05-22T12:02:25.708Z,7.18
2023-05-22T12:05:13.980Z,6.80
2023-05-22T12:08:01.870Z,7.30
2023-05-22T12:10:50.990Z,7.13
2023-05-22T12:13:40.021Z,7.15
2023-05-22T12:16:28.135Z,6.50
2023-05-22T12:19:17.992Z,6.70
2023-05-22T12:22:07.365Z,7.35
2023-05-22T12:24:55.511Z,7.18
2023-05-22T12:27:44.145Z,6.95
2023-05-22T12:30:40.948Z,6.35
2023-05-22T12:33:29.596Z,6.82
2023-05-22T12:36:18.122Z,7.80
2023-05-22T12:39:08.322Z,7.00
2023-05-22T12:41:55.651Z,7.60
2023-05-22T12:44:46.361Z,6.80
2023-05-22T12:47:33.599Z,6.38
2023-05-22T12:50:21.287Z,6.88
2023-05-22T12:53:09.782Z,6.85
2023-05-22T12:55:57.016Z,6.00
2023-05-22T12:58:44.361Z,6.80
2023-05-22T13:01:32.631Z,6.63
2023-05-22T13:04:19.970Z,6.55
2023-05-22T13:07:07.740Z,7.25
2023-05-22T13:09:56.736Z,7.35
2023-05-22T13:12:46.894Z,7.20
2023-05-22T13:15:36.426Z,6.65
2023-05-22T13:18:24.089Z,6.85
2023-05-22T13:21:12.629Z,7.78
2023-05-22T13:24:00.007Z,7.22
2023-05-22T13:26:49.553Z,8.00
2023-05-22T13:29:36.692Z,7.50
2023-05-22T13:32:24.338Z,7.63
2023-05-22T13:35:11.654Z,7.43
2023-05-22T13:37:59.982Z,7.20
2023-05-22T13:40:48.575Z,8.00
2023-05-22T13:43:37.867Z,7.50
2023-05-22T13:46:25.079Z,7.47
2023-05-22T13:49:12.802Z,8.40
2023-05-22T13:52:00.210Z,7.55
2023-05-22T13:54:47.861Z,7.43
2023-05-22T13:57:35.111Z,7.28
2023-05-22T14:00:24.363Z,7.78
2023-05-22T14:03:17.179Z,7.43
2023-05-22T14:06:05.852Z,7.40
2023-05-22T14:08:52.939Z,7.15
2023-05-22T14:11:41.277Z,7.45
2023-05-22T14:14:31.510Z,6.57
2023-05-22T14:17:21.159Z,7.03
2023-05-22T14:20:09.095Z,6.28
2023-05-22T14:22:58.437Z,6.68
2023-05-22T14:25:45.869Z,6.57
2023-05-22T14:28:34.370Z,6.80
2023-05-22T14:31:21.513Z,6.60
2023-05-22T14:34:10.923Z,6.35
2023-05-22T14:36:58.441Z,6.55
2023-05-22T14:39:46.159Z,6.15
2023-05-22T14:42:33.268Z,6.15
2023-05-22T14:45:21.361Z,6.05
2023-05-22T14:48:11.027Z,6.22
2023-05-22T14:51:00.710Z,6.13
2023-05-22T14:53:47.927Z,6.40
2023-05-22T14:56:36.500Z,5.97
2023-05-22T14:59:23.604Z,6.55
2023-05-22T15:02:11.823Z,5.70
2023-05-22T15:04:59.182Z,6.30
2023-05-22T15:07:51.211Z,5.82
2023-05-22T15:10:38.813Z,5.93
2023-05-22T15:13:26.952Z,6.32
2023-05-22T15:16:14.152Z,6.38
2023-05-22T15:19:01.331Z,5.95
2023-05-22T15:21:48.689Z,5.60
2023-05-22T15:24:38.244Z,6.05
2023-05-22T15:27:25.489Z,6.28
2023-05-22T15:30:15.311Z,6.55
2023-05-22T15:33:03.490Z,5.78
2023-05-22T15:35:52.360Z,6.15
2023-05-22T15:38:39.994Z,5.60
2023-05-22T15:41:29.259Z,5.00
2023-05-22T15:44:17.123Z,4.78
2023-05-22T15:47:04.526Z,5.32
2023-05-22T15:49:52.266Z,5.03
2023-05-22T15:52:39.543Z,5.10
2023-05-22T15:55:27.182Z,5.03
2023-05-22T15:58:16.259Z,5.50
2023-05-22T16:01:03.514Z,5.18
2023-05-22T16:03:51.966Z,5.72
2023-05-22T16:06:39.732Z,5.30
2023-05-22T16:09:27.133Z,5.88
2023-05-22T16:12:15.199Z,6.40
2023-05-22T16:15:06.549Z,7.05
2023-05-22T16:17:54.989Z,5.68
2023-05-22T16:20:42.222Z,5.95
2023-05-22T16:23:30.386Z,6.35
2023-05-22T16:26:18.049Z,7.65
2023-05-22T16:29:07.768Z,12.45
2023-05-22T16:31:56.753Z,6.25
2023-05-22T16:34:45.010Z,6.25
2023-05-22T16:37:32.752Z,7.35
2023-05-22T16:40:20.916Z,6.20
2023-05-22T16:43:11.353Z,5.80
2023-05-22T16:45:59.452Z,7.28
2023-05-22T16:48:48.386Z,6.15
2023-05-22T16:51:36.765Z,5.85
2023-05-22T16:54:24.042Z,5.68
2023-05-22T16:57:11.821Z,5.38
2023-05-22T16:59:59.251Z,5.80
2023-05-22T17:02:48.487Z,6.18
2023-05-22T17:05:37.315Z,5.63
2023-05-22T17:08:28.614Z,6.03
2023-05-22T17:11:15.790Z,6.03
2023-05-22T17:14:04.194Z,5.40
2023-05-22T17:16:51.434Z,5.28
2023-05-22T17:19:39.690Z,5.30
2023-05-22T17:22:28.334Z,5.95
2023-05-22T17:25:16.615Z,5.93
2023-05-22T17:28:04.499Z,5.75
2023-05-22T17:30:52.154Z,5.43
2023-05-22T17:33:39.439Z,5.70
2023-05-22T17:36:27.498Z,6.15
2023-05-22T17:39:16.490Z,4.78
2023-05-22T17:42:03.956Z,5.13
2023-05-22T17:44:52.212Z,5.25
2023-05-22T17:47:39.428Z,5.20
2023-05-22T17:50:27.073Z,4.93
2023-05-22T17:53:17.641Z,4.35
2023-05-22T17:56:06.542Z,5.30
2023-05-22T17:58:54.148Z,5.10
2023-05-22T18:01:41.809Z,5.22
2023-05-22T18:04:29.533Z,5.85
2023-05-22T18:07:17.874Z,5.00
2023-05-22T18:10:06.179Z,5.25
2023-05-22T18:12:55.682Z,5.35
2023-05-22T18:15:43.454Z,4.85
2023-05-22T18:18:30.709Z,5.22
2023-05-22T18:21:17.926Z,5.25
2023-05-22T18:24:06.638Z,4.93
2023-05-22T18:26:55.372Z,5.03
2023-05-22T18:29:44.397Z,6.05
2023-05-22T18:32:31.744Z,5.55
2023-05-22T18:35:19.583Z,5.32
2023-05-22T18:38:07.882Z,4.90
2023-05-22T18:40:56.818Z,6.00
2023-05-22T18:43:44.453Z,6.05
2023-05-22T18:46:33.006Z,6.13
2023-05-22T18:49:21.376Z,7.30
2023-05-22T18:52:09.032Z,6.20
2023-05-22T18:54:56.229Z,5.75
2023-05-22T18:57:44.440Z,5.45
2023-05-22T19:00:31.737Z,5.57
2023-05-22T19:03:20.223Z,5.88
2023-05-22T19:06:08.318Z,5.90
2023-05-22T19:08:55.630Z,5.50
2023-05-22T19:11:43.732Z,5.65
2023-05-22T19:14:30.900Z,5.18
2023-05-22T19:17:21.091Z,6.35
2023-05-22T19:20:10.814Z,5.13
2023-05-22T19:22:58.841Z,5.72
2023-05-22T19:25:46.585Z,5.70
2023-05-22T19:28:33.863Z,6.13
2023-05-22T19:31:21.758Z,6.38
2023-05-22T19:34:09.180Z,5.88
2023-05-22T19:36:58.776Z,5.82
2023-05-22T19:39:46.559Z,6.82
2023-05-22T19:42:34.282Z,6.22
2023-05-22T19:45:22.459Z,6.10
2023-05-22T19:48:09.667Z,6.30
2023-05-22T19:50:57.770Z,6.60
2023-05-22T19:53:46.897Z,5.90
2023-05-22T19:56:35.541Z,6.80
2023-05-22T19:59:23.915Z,6.75
2023-05-22T20:02:11.909Z,6.22
2023-05-22T20:05:02.181Z,6.20
2023-05-22T20:07:49.392Z,6.45
2023-05-22T20:10:39.202Z,6.90
2023-05-22T20:13:26.597Z,6.05
2023-05-22T20:16:16.193Z,6.55
2023-05-22T20:19:04.066Z,7.55
2023-05-22T20:21:52.598Z,7.53
2023-05-22T20:24:39.724Z,7.32
2023-05-22T20:27:29.260Z,6.43
2023-05-22T20:30:16.668Z,6.28
2023-05-22T20:33:04.845Z,6.57
2023-05-22T20:35:53.383Z,6.15
2023-05-22T20:38:42.931Z,6.63
2023-05-22T20:41:30.130Z,6.93
2023-05-22T20:44:23.908Z,6.30
2023-05-22T20:47:11.461Z,6.97
2023-05-22T20:49:59.569Z,7.22
2023-05-22T20:52:47.169Z,7.22
2023-05-22T20:55:36.129Z,7.10
2023-05-22T20:58:23.440Z,7.05
2023-05-22T21:01:12.932Z,7.05
2023-05-22T21:04:00.071Z,7.53
2023-05-22T21:06:48.183Z,7.30
2023-05-22T21:09:35.457Z,6.90
2023-05-22T21:12:23.550Z,7.93
2023-05-22T21:15:11.469Z,6.15
2023-05-22T21:18:00.893Z,6.38
2023-05-22T21:20:48.552Z,6.40
2023-05-22T21:23:36.272Z,6.95
2023-05-22T21:26:23.562Z,6.88
2023-05-22T21:29:11.824Z,7.57
2023-05-22T21:31:59.669Z,6.63
2023-05-22T21:34:48.352Z,7.30
2023-05-22T21:37:36.515Z,7.45
2023-05-22T21:40:24.277Z,6.43
2023-05-22T21:43:11.524Z,7.72
2023-05-22T21:45:59.664Z,6.97
2023-05-22T21:48:47.577Z,7.22
2023-05-22T21:51:36.584Z,6.82
2023-05-22T21:54:24.321Z,7.25
2023-05-22T21:57:11.592Z,6.63
2023-05-22T21:59:58.813Z,6.90
2023-05-22T22:02:47.045Z,7.15
2023-05-22T22:05:35.643Z,7.43
2023-05-22T22:08:27.608Z,7.53
2023-05-22T22:11:14.799Z,8.23
2023-05-22T22:14:02.951Z,7.55
2023-05-22T22:16:54.136Z,6.57
2023-05-22T22:19:42.503Z,7.00
2023-05-22T22:22:29.705Z,7.32
2023-05-22T22:25:19.194Z,7.68
2023-05-22T22:28:07.749Z,7.50
2023-05-22T22:30:55.578Z,7.38
2023-05-22T22:33:43.252Z,7.55
2023-05-22T22:36:32.094Z,7.40
2023-05-22T22:39:19.787Z,7.22
2023-05-22T22:42:08.624Z,6.88
2023-05-22T22:44:56.883Z,7.13
2023-05-22T22:47:44.644Z,7.47
2023-05-22T22:50:32.217Z,5.90
2023-05-22T22:53:20.371Z,7.70
2023-05-22T22:56:07.963Z,7.32
2023-05-22T22:58:57.852Z,7.57
2023-05-22T23:01:45.089Z,7.32
2023-05-22T23:04:33.626Z,7.35
2023-05-22T23:07:23.933Z,7.30
2023-05-22T23:10:12.185Z,7.93
2023-05-22T23:12:59.358Z,6.68
2023-05-22T23:15:49.242Z,7.05
2023-05-22T23:18:37.024Z,7.00
2023-05-22T23:21:24.173Z,7.10
2023-05-22T23:24:12.343Z,7.03
2023-05-22T23:27:00.318Z,6.88
2023-05-22T23:29:47.515Z,6.97
2023-05-22T23:32:37.078Z,7.43
2023-05-22T23:35:24.882Z,6.72
2023-05-22T23:38:12.588Z,7.07
2023-05-22T23:41:00.258Z,7.22
2023-05-22T23:43:47.495Z,7.13
2023-05-22T23:46:36.292Z,6.93
2023-05-22T23:49:25.333Z,7.70
2023-05-22T23:52:13.160Z,8.43
2023-05-22T23:55:01.369Z,7.28
2023-05-22T23:57:49.128Z,7.85
